KPIA/PIA METAR and TAF weather

Enter ICAO airport designator
Station Type Date Time Source
KPIA METAR 2019/02/16 16:54 UTC NOAA

KPIA 161654Z 10008KT 10SM CLR M04/M09 A3012 RMK AO2 SLP210 T10441094


Station Type Date Time Source
KPIA Decoded METAR 2019/02/16 16:54 UTC NOAA

GREATER PEORIA REGIONAL AIRPORT , IL, United States (KPIA) 40-40N 89-41W 205M
Feb 16, 2019 - 11:54 AM EST / 2019.02.16 1654 UTC
Wind: from the E (100 degrees) at 9 MPH (8 KT):0
Visibility: 10 mile(s):0
Sky conditions: clear
Temperature: 24.1 F (-4.4 C)
Windchill: 14 F (-10 C):1
Dew Point: 15.1 F (-9.4 C)
Relative Humidity: 68%
Pressure (altimeter): 30.12 in. Hg (1019 hPa)
ob: KPIA 161654Z 10008KT 10SM CLR M04/M09 A3012 RMK AO2 SLP210 T10441094
cycle: 17

Station Type Date Time Source
KPIA TAF 2019/02/16 18:39 UTC NOAA

TAF KPIA 161735Z 1618/1718 07007KT P6SM SCT250
FM170200 08010KT P6SM SCT080 BKN200
FM170700 09010KT 4SM -SN BKN035 OVC060
FM170900 08010KT 1 1/2SM -SN BR OVC015
FM171400 09010KT 2SM -SN OVC012


Example: see airport list